Cantaura, Venezuela
Current Conditions -  °F | °C
As of 6:00 PM on Monday 26 Jan 2015 (Local Time) from SVBC Reporting Station
Few Clouds Few Clouds  
Wind Chill: 90°   Ceiling: Unl
Heat Index: 93°   Visibility: 6mi
Dew Point: 68°   Wind: 17mph
Humidity: 49%   Direction: 360°N
Pressure: 29.83"   Gusts: NA
Location:  9.31°N, 64.37°W
Report Text: SVBC 262200Z 36015KT 9999 FEW010 32/20 Q1010
Loading
Personal Weather Stations






























Interactive Weather Map New forecast layout! Learn more

10-Day Weather Forecast

Advertisements
Track Severe Weather on mobile